KRNO

Reno / Tahoe International Airport

Reno, Nevada, USA
METAR KRNO 191655Z 00000KT 10SM CLR 24/03 A3018 RMK AO2 SLP158 FU DSNT NE THRU SE T02440033
Observed Flight Rules
Aug-19 @ 16:55 UTC (17 minutes ago) Visual Flight Rules
Visibility Clouds
10 miles
  • Clear skies
Temperatures Readings
Current 24°C / 75°F
Dewpoint 3°C / 37°F
Humidity 25%
Altimeter 30.18" Hg
Pressure 1015.8 hPa
Elevation 1342
METAR KRNO 191655Z 00000KT 10SM CLR 24/03 A3018 RMK AO2 SLP158 FU DSNT NE THRU SE T02440033
Observed Flight Rules
Aug-19 @ 16:55 UTC
(17 minutes ago)
VFR
Clouds
  • Clear skies
Temperature Dewpoint
24°C / 75°F 3°C / 37°F
Humidity Altimeter Pressure
25% 30.18" Hg 1015.8 hPa